Cedartown, GA

10:49 PM EST on December 20, 2014 (GMT -0500)
Russell | Change Station
CLOSE
Current Station
Airport
Location: Rome,
Elevation: 643 ft
Nearby Weather Stations

Elev 643 ft 34.35 °N, 85.16 °W | Updated 56 minutes ago

Overcast
Overcast
41 °F
Feels Like 41 °F
N
0
Wind Variable Wind from North

Today
High -- | Low -- °F
--% Chance of Precip.
Yesterday
High -- | Low -- °F
Precip. -- in
7:42 AM 5:35 PM
Waning Crescent, 1% visible
Pressure 30.21 in
Visibility 6.0 miles
Clouds Overcast 4500 ft
Dew Point 40 °F
Humidity 96%
Rainfall 0.10 in
Snow Depth Not available.
UV 0 out of 12
Pollen .30 out of 12
Air Quality Not available.
Flu Activity Not available.
METAR KRMG 210253Z AUTO 00000KT 6SM BR OVC045 05/04 A3021 RMK AO2 SLP230 T00500044 53003

More Conditions Fewer Conditions

Pressure 30.21 in
Visibility 6.0 miles
Clouds Overcast 4500 ft
Dew Point 40 °F
Humidity 96%
Rainfall 0.10 in
Snow Depth Not available.
UV 0 out of 12
Pollen .30 out of 12
Air Quality Not available.
Flu Activity Not available.
METAR KRMG 210253Z AUTO 00000KT 6SM BR OVC045 05/04 A3021 RMK AO2 SLP230 T00500044 53003

More Conditions Fewer Conditions

10-Day Weather Forecast

Almanac

Astronomy

Dec. 20, 2014 Rise Set
Actual Time
Civil Twilight
Nautical Twilight
Astronomical Twilight
Moon
Length of Visible Light
Length of Day
Tomorrow will be .
, % of the Moon is Illuminated

Today's Extremes

State Highs State Lows

Community

WunderPhotos

Upload Photos

1,779,354 photos uploaded!

WunderBlogs® & News

Nearby

Air Quality

  Air Quality AQ Index Pollutant
Not available.

Snow Depth

Station Depth Elevation

Earthquake Activity

City Distance Mag. Time & Date
Minimum magnitude displayed is 2.5.

Coastal Water Temperatures

Place Temperature

Nearby Weather Stations